Time;durP1;ratioP1;P1;durP2;ratioP2;P2;SDS_P1;SDS_P2;PMS_P1;PMS_P2;Temp;Humidity;BMP_temperature;BMP_pressure;BME280_temperature;BME280_humidity;BME280_pressure;Samples;Min_cycle;Max_cycle;Signal;HPM_P1;HPM_P2
2023/01/09 00:02:23;;;;;;;;;;;;;;;-144.47;100.00;61586.06;5026991;28;20415;-81
2023/01/09 00:04:49;;;;;;;;;;;;;;;-144.47;100.00;61586.06;5020612;28;19972;-81
2023/01/09 00:07:14;;;;;;;;;;;;;;;-144.47;100.00;61586.06;5021994;28;19922;-82
2023/01/09 00:09:40;;;;;;;;;;;;;;;-144.47;100.00;61586.06;5024220;28;20270;-83
2023/01/09 00:12:05;;;;;;;;;;;;;;;-144.47;100.00;61586.06;5024014;28;19921;-83
2023/01/09 00:14:31;;;;;;;;;;;;;;;-144.47;100.00;61586.06;5026528;28;20009;-83
2023/01/09 00:16:56;;;;;;;;;;;;;;;-144.47;100.00;61586.06;5022824;28;19918;-82
2023/01/09 00:19:21;;;;;;;;;;;;;;;-144.47;100.00;61586.06;5029273;28;19920;-81
2023/01/09 00:21:47;;;;;;;;;;;;;;;-144.47;100.00;61586.06;5025424;28;19921;-82
2023/01/09 00:24:12;;;;;;;;;;;;;;;-144.47;100.00;61586.06;5028123;28;19979;-82
2023/01/09 00:26:38;;;;;;;;;;;;;;;-144.47;100.00;61586.06;5026705;28;20027;-82
2023/01/09 00:29:05;;;;;;;;;;;;;;;-144.47;100.00;61586.06;5027369;28;19948;-81
2023/01/09 00:31:31;;;;;;;;;;;;;;;-144.47;100.00;61586.06;5024989;28;19917;-82
2023/01/09 00:33:56;;;;;;;;;;;;;;;-144.47;100.00;61586.06;5028337;28;19987;-81
2023/01/09 00:36:22;;;;;;;;;;;;;;;-144.47;100.00;61586.06;5028663;28;19966;-81
2023/01/09 00:38:47;;;;;;;;;;;;;;;-144.47;100.00;61586.06;5025188;28;19980;-82
2023/01/09 00:41:16;;;;;;;;;;;;;;;-144.47;100.00;61586.06;5026678;28;19918;-81
2023/01/09 00:43:47;;;;;;;;;;;;;;;-144.47;100.00;61586.06;5024911;28;19918;-81
2023/01/09 00:46:14;;;;;;;;;;;;;;;-144.47;100.00;61586.06;5022560;28;21423;-81
2023/01/09 00:48:41;;;;;;;;;;;;;;;-144.47;100.00;61586.06;5023855;28;20388;-82
2023/01/09 00:51:07;;;;;;;;;;;;;;;-144.47;100.00;61586.06;5025159;28;19917;-81
2023/01/09 00:53:34;;;;;;;;;;;;;;;-144.47;100.00;61586.06;5023217;28;19928;-81
2023/01/09 00:56:03;;;;;;;;;;;;;;;-144.47;100.00;61586.06;5024224;28;19924;-81
2023/01/09 00:58:30;;;;;;;;;;;;;;;-144.47;100.00;61586.06;5023962;28;20299;-81
2023/01/09 01:00:56;;;;;;;;;;;;;;;-144.47;100.00;61586.06;5023549;28;19913;-81
2023/01/09 01:03:21;;;;;;;;;;;;;;;-144.47;100.00;61586.06;5023132;28;19924;-81
2023/01/09 01:08:31;;;;;;;;;;;;;;;-144.47;100.00;61586.06;5021523;28;20345;-82
2023/01/09 01:10:56;;;;;;;;;;;;;;;-144.47;100.00;61586.06;5027724;28;19917;-82
2023/01/09 01:13:21;;;;;;;;;;;;;;;-144.47;100.00;61586.06;5022227;28;19923;-81
2023/01/09 01:15:47;;;;;;;;;;;;;;;-144.47;100.00;61586.06;5024092;28;19928;-82
2023/01/09 01:18:13;;;;;;;;;;;;;;;-144.47;100.00;61586.06;5025207;28;19925;-81
2023/01/09 01:20:39;;;;;;;;;;;;;;;-144.47;100.00;61586.06;5025121;28;19918;-80
2023/01/09 01:23:05;;;;;;;;;;;;;;;-144.47;100.00;61586.06;5024277;28;20273;-81
2023/01/09 01:25:30;;;;;;;;;;;;;;;-144.47;100.00;61586.06;5027154;28;19958;-82
2023/01/09 01:27:55;;;;;;;;;;;;;;;-144.47;100.00;61586.06;5029193;28;19992;-83
2023/01/09 01:30:21;;;;;;;;;;;;;;;-144.47;100.00;61586.06;5038943;28;19917;-83
2023/01/09 01:32:46;;;;;;;;;;;;;;;-144.47;100.00;61586.06;5032758;28;19967;-81
2023/01/09 01:35:12;;;;;;;;;;;;;;;-144.47;100.00;61586.06;5018415;28;19925;-79
2023/01/09 01:37:37;;;;;;;;;;;;;;;-144.47;100.00;61586.06;5022655;28;19923;-81
2023/01/09 01:40:04;;;;;;;;;;;;;;;-144.47;100.00;61586.06;5023715;28;19917;-80
2023/01/09 01:42:30;;;;;;;;;;;;;;;-144.47;100.00;61586.06;5022185;28;20366;-83
2023/01/09 01:45:01;;;;;;;;;;;;;;;-144.47;100.00;61586.06;5024179;28;19956;-82
2023/01/09 01:47:45;;;;;;;;;;;;;;;-144.47;100.00;61586.06;5021535;28;19960;-82
2023/01/09 01:50:17;;;;;;;;;;;;;;;-144.47;100.00;61586.06;5021947;28;19917;-80
2023/01/09 01:52:44;;;;;;;;;;;;;;;-144.47;100.00;61586.06;5024556;28;20011;-81
2023/01/09 01:55:10;;;;;;;;;;;;;;;-144.47;100.00;61586.06;5023564;28;19917;-80
2023/01/09 01:57:36;;;;;;;;;;;;;;;-144.47;100.00;61586.06;5021447;28;20317;-80
2023/01/09 02:00:03;;;;;;;;;;;;;;;-144.47;100.00;61586.06;5019388;28;19979;-80
2023/01/09 02:02:30;;;;;;;;;;;;;;;-144.47;100.00;61586.06;5021245;28;19975;-81
2023/01/09 02:04:57;;;;;;;;;;;;;;;-144.47;100.00;61586.06;5024282;28;19975;-80
2023/01/09 02:07:23;;;;;;;;;;;;;;;-144.47;100.00;61586.06;5019983;28;19921;-80
2023/01/09 02:09:49;;;;;;;;;;;;;;;-144.47;100.00;61586.06;5020474;28;19931;-81
2023/01/09 02:12:19;;;;;;;;;;;;;;;-144.47;100.00;61586.06;5019655;28;19956;-82
2023/01/09 02:14:45;;;;;;;;;;;;;;;-144.47;100.00;61586.06;5024175;28;20345;-81
2023/01/09 02:17:11;;;;;;;;;;;;;;;-144.47;100.00;61586.06;5021555;28;19917;-81
2023/01/09 02:19:36;;;;;;;;;;;;;;;-144.47;100.00;61586.06;5020392;28;19917;-80
2023/01/09 02:22:15;;;;;;;;;;;;;;;-144.47;100.00;61586.06;5023208;28;19921;-81
2023/01/09 02:24:43;;;;;;;;;;;;;;;-144.47;100.00;61586.06;5020186;28;19917;-81
2023/01/09 02:27:09;;;;;;;;;;;;;;;-144.47;100.00;61586.06;5021748;28;19917;-81
2023/01/09 02:29:53;;;;;;;;;;;;;;;-144.47;100.00;61586.06;5021566;28;19917;-81
2023/01/09 02:32:26;;;;;;;;;;;;;;;-144.47;100.00;61586.06;5016694;28;20400;-81
2023/01/09 02:34:54;;;;;;;;;;;;;;;-144.47;100.00;61586.06;5023934;28;19917;-84
2023/01/09 02:37:42;;;;;;;;;;;;;;;-144.47;100.00;61586.06;5015115;28;19940;-83
2023/01/09 02:40:19;;;;;;;;;;;;;;;-144.47;100.00;61586.06;5021916;28;19924;-83
2023/01/09 02:42:46;;;;;;;;;;;;;;;-144.47;100.00;61586.06;5022083;28;19917;-83
2023/01/09 02:45:11;;;;;;;;;;;;;;;-144.47;100.00;61586.06;5022578;28;20270;-82
2023/01/09 02:47:41;;;;;;;;;;;;;;;-144.47;100.00;61586.06;5023421;28;19917;-82
2023/01/09 02:50:09;;;;;;;;;;;;;;;-144.47;100.00;61586.06;5023342;28;19917;-82
2023/01/09 02:52:44;;;;;;;;;;;;;;;-144.47;100.00;61586.06;5025222;28;19917;-82
2023/01/09 02:55:09;;;;;;;;;;;;;;;-144.47;100.00;61586.06;5024413;28;20352;-81
2023/01/09 02:57:47;;;;;;;;;;;;;;;-144.47;100.00;61586.06;5026603;28;19988;-82
2023/01/09 03:00:31;;;;;;;;;;;;;;;-144.47;100.00;61586.06;5021644;28;19936;-82
2023/01/09 03:03:02;;;;;;;;;;;;;;;-144.47;100.00;61586.06;5020963;28;20539;-80
2023/01/09 03:05:30;;;;;;;;;;;;;;;-144.47;100.00;61586.06;5027914;28;19917;-81
2023/01/09 03:07:56;;;;;;;;;;;;;;;-144.47;100.00;61586.06;5025961;28;20357;-81
2023/01/09 03:10:41;;;;;;;;;;;;;;;-144.47;100.00;61586.06;5030961;28;19964;-80
2023/01/09 03:13:10;;;;;;;;;;;;;;;-144.47;100.00;61586.06;5015400;28;19953;-80
2023/01/09 03:15:37;;;;;;;;;;;;;;;-144.47;100.00;61586.06;5024953;28;20419;-81
2023/01/09 03:18:04;;;;;;;;;;;;;;;-144.47;100.00;61586.06;5023661;28;19928;-80
2023/01/09 03:20:30;;;;;;;;;;;;;;;-144.47;100.00;61586.06;5025649;28;20338;-81
2023/01/09 03:22:57;;;;;;;;;;;;;;;-144.47;100.00;61586.06;5033060;28;19920;-80
2023/01/09 03:25:23;;;;;;;;;;;;;;;-144.47;100.00;61586.06;5032681;28;19928;-81
2023/01/09 03:27:52;;;;;;;;;;;;;;;-144.47;100.00;61586.06;5031519;28;19917;-81
2023/01/09 03:30:17;;;;;;;;;;;;;;;-144.47;100.00;61586.06;5028822;28;19917;-81
2023/01/09 03:32:43;;;;;;;;;;;;;;;-144.47;100.00;61586.06;5024380;28;20730;-81
2023/01/09 03:35:09;;;;;;;;;;;;;;;-144.47;100.00;61586.06;5027187;28;19997;-80
2023/01/09 03:37:35;;;;;;;;;;;;;;;-144.47;100.00;61586.06;5025832;28;20000;-79
2023/01/09 03:40:00;;;;;;;;;;;;;;;-144.47;100.00;61586.06;5021108;28;19964;-80
2023/01/09 03:42:26;;;;;;;;;;;;;;;-144.47;100.00;61586.06;5033965;28;19917;-80
2023/01/09 03:44:51;;;;;;;;;;;;;;;-144.47;100.00;61586.06;5036855;28;19917;-81
2023/01/09 03:47:17;;;;;;;;;;;;;;;-144.47;100.00;61586.06;5041731;28;19956;-80
2023/01/09 03:49:43;;;;;;;;;;;;;;;-144.47;100.00;61586.06;5032181;28;19921;-80
2023/01/09 03:52:08;;;;;;;;;;;;;;;-144.47;100.00;61586.06;5035854;28;19948;-82
2023/01/09 03:54:34;;;;;;;;;;;;;;;-144.47;100.00;61586.06;5032860;28;19921;-82
2023/01/09 03:56:59;;;;;;;;;;;;;;;-144.47;100.00;61586.06;5031951;28;19964;-82
2023/01/09 03:59:24;;;;;;;;;;;;;;;-144.47;100.00;61586.06;5034042;28;19917;-82
2023/01/09 04:01:50;;;;;;;;;;;;;;;-144.47;100.00;61586.06;5031302;28;20435;-81
2023/01/09 04:04:16;;;;;;;;;;;;;;;-144.47;100.00;61586.06;5021278;28;19984;-82
2023/01/09 04:06:41;;;;;;;;;;;;;;;-144.47;100.00;61586.06;5027551;28;20393;-82
2023/01/09 04:09:06;;;;;;;;;;;;;;;-144.47;100.00;61586.06;5031092;28;19972;-82
2023/01/09 04:11:32;;;;;;;;;;;;;;;-144.47;100.00;61586.06;5028721;28;19928;-82
2023/01/09 04:13:57;;;;;;;;;;;;;;;-144.47;100.00;61586.06;5026698;28;19918;-80
2023/01/09 04:16:23;;;;;;;;;;;;;;;-144.47;100.00;61586.06;5022252;28;20012;-82
2023/01/09 04:18:49;;;;;;;;;;;;;;;-144.47;100.00;61586.06;5022576;28;19920;-81
2023/01/09 04:21:14;;;;;;;;;;;;;;;-144.47;100.00;61586.06;5024757;28;19924;-83
2023/01/09 04:23:39;;;;;;;;;;;;;;;-144.47;100.00;61586.06;5026062;28;19921;-83
2023/01/09 04:26:05;;;;;;;;;;;;;;;-144.47;100.00;61586.06;5023989;28;19940;-83
2023/01/09 04:28:30;;;;;;;;;;;;;;;-144.47;100.00;61586.06;5024227;28;19957;-83
2023/01/09 04:30:56;;;;;;;;;;;;;;;-144.47;100.00;61586.06;5027378;28;19917;-84
2023/01/09 04:33:21;;;;;;;;;;;;;;;-144.47;100.00;61586.06;5033777;28;19924;-85
2023/01/09 04:35:47;;;;;;;;;;;;;;;-144.47;100.00;61586.06;5030797;28;19924;-84
2023/01/09 04:38:12;;;;;;;;;;;;;;;-144.47;100.00;61586.06;5035395;28;19928;-84
2023/01/09 04:40:38;;;;;;;;;;;;;;;-144.47;100.00;61586.06;5036592;28;19952;-84
2023/01/09 04:43:03;;;;;;;;;;;;;;;-144.47;100.00;61586.06;5042181;28;19913;-84
2023/01/09 04:45:28;;;;;;;;;;;;;;;-144.47;100.00;61586.06;5033492;28;19955;-83
2023/01/09 04:47:54;;;;;;;;;;;;;;;-144.47;100.00;61586.06;5026268;28;19920;-84
2023/01/09 04:50:19;;;;;;;;;;;;;;;-144.47;100.00;61586.06;5025796;28;19988;-83
2023/01/09 04:52:45;;;;;;;;;;;;;;;-144.47;100.00;61586.06;5023593;28;19975;-84
2023/01/09 04:55:10;;;;;;;;;;;;;;;-144.47;100.00;61586.06;5020689;28;19963;-84
2023/01/09 04:57:36;;;;;;;;;;;;;;;-144.47;100.00;61586.06;5027981;28;19916;-83
2023/01/09 05:00:02;;;;;;;;;;;;;;;-144.47;100.00;61586.06;5023702;28;20369;-82
2023/01/09 05:02:28;;;;;;;;;;;;;;;-144.47;100.00;61586.06;5024507;28;19960;-83
2023/01/09 05:04:53;;;;;;;;;;;;;;;-144.47;100.00;61586.06;5022414;28;19928;-84
2023/01/09 05:07:18;;;;;;;;;;;;;;;-144.47;100.00;61586.06;5018518;28;19924;-83
2023/01/09 05:09:44;;;;;;;;;;;;;;;-144.47;100.00;61586.06;5022750;28;19937;-83
2023/01/09 05:12:09;;;;;;;;;;;;;;;-144.47;100.00;61586.06;5027031;28;19917;-84
2023/01/09 05:14:35;;;;;;;;;;;;;;;-144.47;100.00;61586.06;5023770;28;19917;-82
2023/01/09 05:17:00;;;;;;;;;;;;;;;-144.47;100.00;61586.06;5021185;28;19932;-83
2023/01/09 05:19:25;;;;;;;;;;;;;;;-144.47;100.00;61586.06;5024930;28;20293;-82
2023/01/09 05:21:52;;;;;;;;;;;;;;;-144.47;100.00;61586.06;5021452;28;19918;-84
2023/01/09 05:24:17;;;;;;;;;;;;;;;-144.47;100.00;61586.06;5021751;28;19917;-84
2023/01/09 05:26:43;;;;;;;;;;;;;;;-144.47;100.00;61586.06;5024434;28;19931;-84
2023/01/09 05:29:08;;;;;;;;;;;;;;;-144.47;100.00;61586.06;5025286;28;19917;-83
2023/01/09 05:31:34;;;;;;;;;;;;;;;-144.47;100.00;61586.06;5021981;28;19925;-82
2023/01/09 05:33:59;;;;;;;;;;;;;;;-144.47;100.00;61586.06;5022158;28;19918;-82
2023/01/09 05:36:25;;;;;;;;;;;;;;;-144.47;100.00;61586.06;5020968;28;20044;-82
2023/01/09 05:38:50;;;;;;;;;;;;;;;-144.47;100.00;61586.06;5022858;28;19928;-80
2023/01/09 05:41:16;;;;;;;;;;;;;;;-144.47;100.00;61586.06;5023009;28;20007;-83
2023/01/09 05:43:41;;;;;;;;;;;;;;;-144.47;100.00;61586.06;5018338;28;19917;-80
2023/01/09 05:46:06;;;;;;;;;;;;;;;-144.47;100.00;61586.06;5021953;28;19924;-80
2023/01/09 05:48:32;;;;;;;;;;;;;;;-144.47;100.00;61586.06;5023211;28;19921;-80
2023/01/09 05:50:57;;;;;;;;;;;;;;;-144.47;100.00;61586.06;5021467;28;19917;-80
2023/01/09 05:53:23;;;;;;;;;;;;;;;-144.47;100.00;61586.06;5019910;28;19917;-82
2023/01/09 05:55:48;;;;;;;;;;;;;;;-144.47;100.00;61586.06;5021431;28;19968;-82
2023/01/09 05:58:14;;;;;;;;;;;;;;;-144.47;100.00;61586.06;5021191;28;20408;-80
2023/01/09 06:00:39;;;;;;;;;;;;;;;-144.47;100.00;61586.06;5017970;28;19925;-83
2023/01/09 06:03:04;;;;;;;;;;;;;;;-144.47;100.00;61586.06;5017056;28;19921;-81
2023/01/09 06:05:30;;;;;;;;;;;;;;;-144.47;100.00;61586.06;5021768;28;20000;-79
2023/01/09 06:07:55;;;;;;;;;;;;;;;-144.47;100.00;61586.06;5016397;28;19975;-76
2023/01/09 06:10:21;;;;;;;;;;;;;;;-144.47;100.00;61586.06;5021072;28;19933;-76
2023/01/09 06:12:48;;;;;;;;;;;;;;;-144.47;100.00;61586.06;5023434;28;20230;-77
2023/01/09 06:15:19;;;;;;;;;;;;;;;-144.47;100.00;61586.06;5019293;28;19918;-77
2023/01/09 06:17:44;;;;;;;;;;;;;;;-144.47;100.00;61586.06;5024588;28;20015;-77
2023/01/09 06:20:10;;;;;;;;;;;;;;;-144.47;100.00;61586.06;5020977;28;20007;-77
2023/01/09 06:22:35;;;;;;;;;;;;;;;-144.47;100.00;61586.06;5021653;28;19920;-78
2023/01/09 06:25:02;;;;;;;;;;;;;;;-144.47;100.00;61586.06;5016098;28;20236;-79
2023/01/09 06:27:28;;;;;;;;;;;;;;;-144.47;100.00;61586.06;5019146;28;19913;-77
2023/01/09 06:29:54;;;;;;;;;;;;;;;-144.47;100.00;61586.06;5016718;28;19924;-78
2023/01/09 06:32:19;;;;;;;;;;;;;;;-144.47;100.00;61586.06;5022816;28;19916;-79
2023/01/09 06:34:45;;;;;;;;;;;;;;;-144.47;100.00;61586.06;5024099;28;19916;-79
2023/01/09 06:37:10;;;;;;;;;;;;;;;-144.47;100.00;61586.06;5024204;28;19917;-78
2023/01/09 06:39:36;;;;;;;;;;;;;;;-144.47;100.00;61586.06;5026241;28;19917;-77
2023/01/09 06:42:02;;;;;;;;;;;;;;;-144.47;100.00;61586.06;5021391;28;19921;-77
2023/01/09 06:44:27;;;;;;;;;;;;;;;-144.47;100.00;61586.06;5021076;28;20023;-77
2023/01/09 06:46:53;;;;;;;;;;;;;;;-144.47;100.00;61586.06;5024944;28;20341;-81
2023/01/09 06:49:22;;;;;;;;;;;;;;;-144.47;100.00;61586.06;5031285;28;20004;-78
2023/01/09 06:51:53;;;;;;;;;;;;;;;-144.47;100.00;61586.06;5023712;28;19917;-78
2023/01/09 06:54:19;;;;;;;;;;;;;;;-144.47;100.00;61586.06;5025267;28;19960;-79
2023/01/09 06:56:44;;;;;;;;;;;;;;;-144.47;100.00;61586.06;5027905;28;19924;-77
2023/01/09 06:59:10;;;;;;;;;;;;;;;-144.47;100.00;61586.06;5023724;28;19922;-79
2023/01/09 07:01:38;;;;;;;;;;;;;;;-144.47;100.00;61586.06;5028318;28;20394;-79
2023/01/09 07:04:04;;;;;;;;;;;;;;;-144.47;100.00;61586.06;5026984;28;19928;-79
2023/01/09 07:06:30;;;;;;;;;;;;;;;-144.47;100.00;61586.06;5029867;28;20292;-79
2023/01/09 07:08:55;;;;;;;;;;;;;;;-144.47;100.00;61586.06;5029194;28;19917;-78
2023/01/09 07:11:20;;;;;;;;;;;;;;;-144.47;100.00;61586.06;5024856;28;19917;-78
2023/01/09 07:13:46;;;;;;;;;;;;;;;-144.47;100.00;61586.06;5035070;28;19921;-77
2023/01/09 07:16:11;;;;;;;;;;;;;;;-144.47;100.00;61586.06;5035205;28;19921;-77
2023/01/09 07:18:37;;;;;;;;;;;;;;;-144.47;100.00;61586.06;5033224;28;19916;-79
2023/01/09 07:21:04;;;;;;;;;;;;;;;-144.47;100.00;61586.06;5033522;28;19928;-78
2023/01/09 07:23:29;;;;;;;;;;;;;;;-144.47;100.00;61586.06;5035710;28;19918;-77
2023/01/09 07:25:55;;;;;;;;;;;;;;;-144.47;100.00;61586.06;5035211;28;19917;-79
2023/01/09 07:28:20;;;;;;;;;;;;;;;-144.47;100.00;61586.06;5030756;28;19924;-78
2023/01/09 07:30:46;;;;;;;;;;;;;;;-144.47;100.00;61586.06;5035170;28;19944;-76
2023/01/09 07:33:11;;;;;;;;;;;;;;;-144.47;100.00;61586.06;5033286;28;19960;-78
2023/01/09 07:35:36;;;;;;;;;;;;;;;-144.47;100.00;61586.06;5033583;28;19917;-78
2023/01/09 07:38:02;;;;;;;;;;;;;;;-144.47;100.00;61586.06;5030355;28;20451;-77
2023/01/09 07:40:27;;;;;;;;;;;;;;;-144.47;100.00;61586.06;5034824;28;19917;-79
2023/01/09 07:42:53;;;;;;;;;;;;;;;-144.47;100.00;61586.06;5033612;28;19918;-77
2023/01/09 07:45:19;;;;;;;;;;;;;;;-144.47;100.00;61586.06;5032459;28;19917;-78
2023/01/09 07:47:44;;;;;;;;;;;;;;;-144.47;100.00;61586.06;4940628;23;20037;-75
2023/01/09 07:50:10;;;;;;;;;;;;;;;-144.47;100.00;61586.06;4885838;29;19969;-75
2023/01/09 07:52:35;;;;;;;;;;;;;;;-144.47;100.00;61586.06;4885809;29;19923;-76
2023/01/09 07:55:02;;;;;;;;;;;;;;;-144.47;100.00;61586.06;4886321;28;20294;-76
2023/01/09 07:57:29;;;;;;;;;;;;;;;-144.47;100.00;61586.06;4884653;29;19927;-77
2023/01/09 07:59:54;;;;;;;;;;;;;;;-144.47;100.00;61586.06;4887672;28;19923;-77
2023/01/09 08:02:20;;;;;;;;;;;;;;;-144.47;100.00;61586.06;4884381;29;20047;-77
2023/01/09 08:04:45;;;;;;;;;;;;;;;-144.47;100.00;61586.06;4887661;28;20083;-77
2023/01/09 08:07:11;;;;;;;;;;;;;;;-144.47;100.00;61586.06;4885411;29;20589;-77
2023/01/09 08:09:36;;;;;;;;;;;;;;;-144.47;100.00;61586.06;4885653;29;19919;-77
2023/01/09 08:12:03;;;;;;;;;;;;;;;-144.47;100.00;61586.06;4886661;28;19920;-76
2023/01/09 08:14:28;;;;;;;;;;;;;;;-144.47;100.00;61586.06;4888095;29;19919;-76
2023/01/09 08:16:53;;;;;;;;;;;;;;;-144.47;100.00;61586.06;4884033;29;20272;-76
2023/01/09 08:19:19;;;;;;;;;;;;;;;-144.47;100.00;61586.06;4880585;29;19923;-76
2023/01/09 08:21:44;;;;;;;;;;;;;;;-144.47;100.00;61586.06;4886553;29;19962;-75
2023/01/09 08:24:10;;;;;;;;;;;;;;;-144.47;100.00;61586.06;4883713;29;19969;-76
2023/01/09 08:26:35;;;;;;;;;;;;;;;-144.47;100.00;61586.06;4885312;29;20323;-75
2023/01/09 08:29:00;;;;;;;;;;;;;;;-144.47;100.00;61586.06;4886465;28;19942;-76
2023/01/09 08:31:26;;;;;;;;;;;;;;;-144.47;100.00;61586.06;4884091;29;19967;-78
2023/01/09 08:33:51;;;;;;;;;;;;;;;-144.47;100.00;61586.06;4887631;28;19919;-77
2023/01/09 08:36:16;;;;;;;;;;;;;;;-144.47;100.00;61586.06;4885706;28;19920;-75
2023/01/09 08:38:41;;;;;;;;;;;;;;;-144.47;100.00;61586.06;4886445;28;19926;-77
2023/01/09 08:49:19;;;;;;;;;;;;;;;-144.47;100.00;61586.06;4886948;29;19919;-77
2023/01/09 08:51:44;;;;;;;;;;;;;;;-144.47;100.00;61586.06;4884037;29;19934;-76
2023/01/09 08:54:10;;;;;;;;;;;;;;;-144.47;100.00;61586.06;4885859;29;19927;-76
2023/01/09 08:56:35;;;;;;;;;;;;;;;-144.47;100.00;61586.06;4885129;28;19923;-76
2023/01/09 08:59:00;;;;;;;;;;;;;;;-144.47;100.00;61586.06;4884586;29;19920;-76
2023/01/09 09:01:26;;;;;;;;;;;;;;;-144.47;100.00;61586.06;4886348;29;19954;-76
2023/01/09 09:03:51;;;;;;;;;;;;;;;-144.47;100.00;61586.06;4883557;29;19920;-75
2023/01/09 09:06:16;;;;;;;;;;;;;;;-144.47;100.00;61586.06;4887447;28;19983;-75
2023/01/09 09:08:42;;;;;;;;;;;;;;;-144.47;100.00;61586.06;4887310;28;20363;-77
2023/01/09 09:11:07;;;;;;;;;;;;;;;-144.47;100.00;61586.06;4885270;29;19919;-76
2023/01/09 09:13:32;;;;;;;;;;;;;;;-144.47;100.00;61586.06;4885458;29;19916;-75
2023/01/09 09:15:58;;;;;;;;;;;;;;;-144.47;100.00;61586.06;4882621;29;20014;-76
2023/01/09 09:18:23;;;;;;;;;;;;;;;-144.47;100.00;61586.06;4886540;28;19977;-76
2023/01/09 09:20:48;;;;;;;;;;;;;;;-144.47;100.00;61586.06;4883162;29;19924;-76
2023/01/09 09:23:14;;;;;;;;;;;;;;;-144.47;100.00;61586.06;4885884;29;19931;-76
2023/01/09 09:25:39;;;;;;;;;;;;;;;-144.47;100.00;61586.06;4884421;28;19926;-76
2023/01/09 09:28:04;;;;;;;;;;;;;;;-144.47;100.00;61586.06;4884467;29;19975;-76
2023/01/09 09:30:30;;;;;;;;;;;;;;;-144.47;100.00;61586.06;4885349;29;19924;-75
2023/01/09 09:32:55;;;;;;;;;;;;;;;-144.47;100.00;61586.06;4883037;29;20272;-76
2023/01/09 09:35:21;;;;;;;;;;;;;;;-144.47;100.00;61586.06;4885679;28;19920;-76
2023/01/09 09:37:56;;;;;;;;;;;;;;;-144.47;100.00;61586.06;4885546;29;19923;-76
2023/01/09 09:40:40;;;;;;;;;;;;;;;-144.47;100.00;61586.06;4879575;28;19915;-76
2023/01/09 09:46:00;;;;;;;;;;;;;;;-144.47;100.00;61586.06;4879775;29;19916;-75
2023/01/09 09:48:25;;;;;;;;;;;;;;;-144.47;100.00;61586.06;4885492;28;19919;-76
2023/01/09 09:51:05;;;;;;;;;;;;;;;-144.47;100.00;61586.06;4882787;29;20019;-77
2023/01/09 09:53:47;;;;;;;;;;;;;;;-144.47;100.00;61586.06;4880136;29;19923;-77
2023/01/09 09:56:14;;;;;;;;;;;;;;;-144.47;100.00;61586.06;4883899;29;19927;-76
2023/01/09 09:58:42;;;;;;;;;;;;;;;-144.47;100.00;61586.06;4883596;29;19919;-77
2023/01/09 10:01:09;;;;;;;;;;;;;;;-144.47;100.00;61586.06;4884670;29;19919;-77
2023/01/09 10:03:35;;;;;;;;;;;;;;;-144.47;100.00;61586.06;4884055;29;19920;-76
2023/01/09 10:06:07;;;;;;;;;;;;;;;-144.47;100.00;61586.06;4886449;28;19934;-76
2023/01/09 10:08:41;;;;;;;;;;;;;;;-144.47;100.00;61586.06;4881928;29;20394;-77
2023/01/09 10:11:21;;;;;;;;;;;;;;;-144.47;100.00;61586.06;4884286;29;19920;-77
2023/01/09 10:14:05;;;;;;;;;;;;;;;-144.47;100.00;61586.06;4885268;29;19986;-77
2023/01/09 10:16:30;;;;;;;;;;;;;;;-144.47;100.00;61586.06;4880379;29;19923;-76
2023/01/09 10:19:15;;;;;;;;;;;;;;;-144.47;100.00;61586.06;4885687;28;20426;-77
2023/01/09 10:21:50;;;;;;;;;;;;;;;-144.47;100.00;61586.06;4884240;29;19923;-75
2023/01/09 10:24:21;;;;;;;;;;;;;;;-144.47;100.00;61586.06;4883277;29;19965;-75
2023/01/09 10:26:49;;;;;;;;;;;;;;;-144.47;100.00;61586.06;4885088;29;19946;-75
2023/01/09 10:29:39;;;;;;;;;;;;;;;-144.47;100.00;61586.06;4882965;29;19935;-76
2023/01/09 10:32:04;;;;;;;;;;;;;;;-144.47;100.00;61586.06;4878877;29;19965;-75
2023/01/09 10:34:50;;;;;;;;;;;;;;;-144.47;100.00;61586.06;4884250;28;20014;-75
2023/01/09 10:37:24;;;;;;;;;;;;;;;-144.47;100.00;61586.06;4883004;28;19919;-77
2023/01/09 10:40:04;;;;;;;;;;;;;;;-144.47;100.00;61586.06;4885323;29;20419;-76
2023/01/09 10:42:59;;;;;;;;;;;;;;;-144.47;100.00;61586.06;4880220;29;19951;-77
2023/01/09 10:45:28;;;;;;;;;;;;;;;-144.47;100.00;61586.06;4890906;29;19919;-77
2023/01/09 10:47:59;;;;;;;;;;;;;;;-144.47;100.00;61586.06;4884858;29;19919;-76
2023/01/09 10:50:31;;;;;;;;;;;;;;;-144.47;100.00;61586.06;4879105;28;20372;-76
2023/01/09 10:52:57;;;;;;;;;;;;;;;-144.47;100.00;61586.06;4885062;29;19915;-76
2023/01/09 10:55:25;;;;;;;;;;;;;;;-144.47;100.00;61586.06;4882063;29;19973;-76
2023/01/09 10:57:57;;;;;;;;;;;;;;;-144.47;100.00;61586.06;4878285;29;19986;-75
2023/01/09 11:00:23;;;;;;;;;;;;;;;-144.47;100.00;61586.06;4885247;28;19927;-76
2023/01/09 11:02:49;;;;;;;;;;;;;;;-144.47;100.00;61586.06;4880407;29;19958;-75
2023/01/09 11:05:18;;;;;;;;;;;;;;;-144.47;100.00;61586.06;4885915;28;19927;-77
2023/01/09 11:07:45;;;;;;;;;;;;;;;-144.47;100.00;61586.06;4882899;29;19920;-76
2023/01/09 11:10:11;;;;;;;;;;;;;;;-144.47;100.00;61586.06;4883108;29;20014;-76
2023/01/09 11:12:37;;;;;;;;;;;;;;;-144.47;100.00;61586.06;4883143;29;20014;-76
2023/01/09 11:15:14;;;;;;;;;;;;;;;-144.47;100.00;61586.06;4883941;28;20022;-76
2023/01/09 11:17:39;;;;;;;;;;;;;;;-144.47;100.00;61586.06;4883352;29;19920;-76
2023/01/09 11:20:17;;;;;;;;;;;;;;;-144.47;100.00;61586.06;4883606;28;20003;-75
2023/01/09 11:22:43;;;;;;;;;;;;;;;-144.47;100.00;61586.06;4883946;29;20269;-77
2023/01/09 11:25:13;;;;;;;;;;;;;;;-144.47;100.00;61586.06;4883300;29;19925;-77
2023/01/09 11:27:38;;;;;;;;;;;;;;;-144.47;100.00;61586.06;4883938;29;19919;-77
2023/01/09 11:30:11;;;;;;;;;;;;;;;-144.47;100.00;61586.06;4883646;29;19928;-75
2023/01/09 11:32:37;;;;;;;;;;;;;;;-144.47;100.00;61586.06;4882683;29;19969;-74
2023/01/09 11:35:26;;;;;;;;;;;;;;;-144.47;100.00;61586.06;4882625;28;19954;-75
2023/01/09 11:38:03;;;;;;;;;;;;;;;-144.47;100.00;61586.06;4887099;29;20061;-76
2023/01/09 11:40:32;;;;;;;;;;;;;;;-144.47;100.00;61586.06;4879088;29;19971;-75
2023/01/09 11:43:03;;;;;;;;;;;;;;;-144.47;100.00;61586.06;4884247;29;19919;-75
2023/01/09 11:45:33;;;;;;;;;;;;;;;-144.47;100.00;61586.06;4880322;29;20356;-77
2023/01/09 11:47:59;;;;;;;;;;;;;;;-144.47;100.00;61586.06;4883839;28;19919;-76
2023/01/09 11:50:25;;;;;;;;;;;;;;;-144.47;100.00;61586.06;4881924;29;19926;-76
2023/01/09 11:53:09;;;;;;;;;;;;;;;-144.47;100.00;61586.06;4873911;29;19927;-76
2023/01/09 11:55:34;;;;;;;;;;;;;;;-144.47;100.00;61586.06;4880410;29;19964;-76
2023/01/09 11:58:00;;;;;;;;;;;;;;;-144.47;100.00;61586.06;4884482;28;19930;-76
2023/01/09 12:00:27;;;;;;;;;;;;;;;-144.47;100.00;61586.06;4884479;29;20320;-76
2023/01/09 12:03:07;;;;;;;;;;;;;;;-144.47;100.00;61586.06;4887390;29;19923;-76
2023/01/09 12:05:52;;;;;;;;;;;;;;;-144.47;100.00;61586.06;4884514;28;19926;-77
2023/01/09 12:08:26;;;;;;;;;;;;;;;-144.47;100.00;61586.06;4884675;29;19960;-76
2023/01/09 12:11:10;;;;;;;;;;;;;;;-144.47;100.00;61586.06;4901972;29;19927;-75
2023/01/09 12:13:36;;;;;;;;;;;;;;;-144.47;100.00;61586.06;4883617;29;19927;-76
2023/01/09 12:16:16;;;;;;;;;;;;;;;-144.47;100.00;61586.06;4886596;28;20286;-76
2023/01/09 12:18:42;;;;;;;;;;;;;;;-144.47;100.00;61586.06;4885965;29;19920;-76
2023/01/09 12:21:07;;;;;;;;;;;;;;;-144.47;100.00;61586.06;4885814;29;20291;-76
2023/01/09 12:23:38;;;;;;;;;;;;;;;-144.47;100.00;61586.06;4883714;29;20273;-76
2023/01/09 12:26:04;;;;;;;;;;;;;;;-144.47;100.00;61586.06;4891069;28;19928;-77
2023/01/09 12:28:47;;;;;;;;;;;;;;;-144.47;100.00;61586.06;4886551;28;19920;-78
2023/01/09 12:31:27;;;;;;;;;;;;;;;-144.47;100.00;61586.06;4886626;29;20006;-76
2023/01/09 12:33:58;;;;;;;;;;;;;;;-144.47;100.00;61586.06;4883306;29;20299;-75
2023/01/09 12:36:42;;;;;;;;;;;;;;;-144.47;100.00;61586.06;4886042;28;19926;-75